createdAt,value
2023-04-12T00:00:42.949Z,8.38
2023-04-12T00:03:10.725Z,13.02
2023-04-12T00:05:37.855Z,11.20
2023-04-12T00:08:05.212Z,9.57
2023-04-12T00:10:32.063Z,9.45
2023-04-12T00:12:58.901Z,7.80
2023-04-12T00:15:25.767Z,8.80
2023-04-12T00:17:52.933Z,13.32
2023-04-12T00:20:20.457Z,9.98
2023-04-12T00:22:47.284Z,7.55
2023-04-12T00:25:14.440Z,11.48
2023-04-12T00:27:42.017Z,11.55
2023-04-12T00:30:09.086Z,11.40
2023-04-12T00:32:35.847Z,7.55
2023-04-12T00:35:03.040Z,9.50
2023-04-12T00:37:29.924Z,8.63
2023-04-12T00:39:56.620Z,13.63
2023-04-12T00:42:23.707Z,12.20
2023-04-12T00:44:50.428Z,13.88
2023-04-12T00:47:17.196Z,8.18
2023-04-12T00:49:43.950Z,9.25
2023-04-12T00:52:14.963Z,7.82
2023-04-12T00:54:43.249Z,9.50
2023-04-12T00:57:10.082Z,8.95
2023-04-12T00:59:36.822Z,8.23
2023-04-12T01:02:03.838Z,8.27
2023-04-12T01:04:31.296Z,7.75
2023-04-12T01:07:23.724Z,8.90
2023-04-12T01:10:16.893Z,9.10
2023-04-12T01:13:12.564Z,8.63
2023-04-12T01:15:52.216Z,10.90
2023-04-12T01:18:24.386Z,6.57
2023-04-12T01:20:57.774Z,8.00
2023-04-12T01:23:49.266Z,7.70
2023-04-12T01:26:37.236Z,9.82
2023-04-12T01:29:16.204Z,8.93
2023-04-12T01:32:02.416Z,7.30
2023-04-12T01:34:31.728Z,7.25
2023-04-12T01:37:03.283Z,9.05
2023-04-12T01:39:32.792Z,5.10
2023-04-12T01:41:59.574Z,7.70
2023-04-12T01:44:26.244Z,13.85
2023-04-12T01:46:53.573Z,10.27
2023-04-12T01:49:24.525Z,8.25
2023-04-12T01:52:06.665Z,11.77
2023-04-12T01:54:38.802Z,7.30
2023-04-12T01:57:08.878Z,5.30
2023-04-12T01:59:40.980Z,6.65
2023-04-12T02:02:12.821Z,6.93
2023-04-12T02:04:42.938Z,10.10
2023-04-12T02:07:09.789Z,12.07
2023-04-12T02:09:39.760Z,8.70
2023-04-12T02:12:07.762Z,8.75
2023-04-12T02:14:38.064Z,7.95
2023-04-12T02:17:05.882Z,13.63
2023-04-12T02:19:32.885Z,9.80
2023-04-12T02:22:00.447Z,11.05
2023-04-12T02:24:27.425Z,7.07
2023-04-12T02:29:21.833Z,7.05
2023-04-12T02:31:48.966Z,8.93
2023-04-12T02:34:19.460Z,10.27
2023-04-12T02:36:49.418Z,13.73
2023-04-12T02:39:22.247Z,9.98
2023-04-12T02:41:49.543Z,10.38
2023-04-12T02:44:19.447Z,8.55
2023-04-12T02:46:46.135Z,14.00
2023-04-12T02:49:12.826Z,12.85
2023-04-12T02:51:39.990Z,14.57
2023-04-12T02:54:07.855Z,15.27
2023-04-12T02:56:39.762Z,12.95
2023-04-12T02:59:08.037Z,15.05
2023-04-12T03:01:36.242Z,12.32
2023-04-12T03:04:03.070Z,10.80
2023-04-12T03:06:30.624Z,10.95
2023-04-12T03:08:58.637Z,11.77
2023-04-12T03:11:27.700Z,13.88
2023-04-12T03:13:55.754Z,12.65
2023-04-12T03:16:25.956Z,10.65
2023-04-12T03:18:55.076Z,16.55
2023-04-12T03:21:21.766Z,12.25
2023-04-12T03:23:48.891Z,10.98
2023-04-12T03:26:16.295Z,11.68
2023-04-12T03:28:43.018Z,10.50
2023-04-12T03:31:10.788Z,16.33
2023-04-12T03:33:38.399Z,9.27
2023-04-12T03:36:06.295Z,17.60
2023-04-12T03:38:33.544Z,12.15
2023-04-12T03:41:00.273Z,10.77
2023-04-12T03:43:27.336Z,9.90
2023-04-12T03:45:54.470Z,12.07
2023-04-12T03:48:22.723Z,9.18
2023-04-12T03:50:59.848Z,12.82
2023-04-12T03:53:33.141Z,14.70
2023-04-12T03:56:00.708Z,11.05
2023-04-12T03:58:27.437Z,13.40
2023-04-12T04:00:54.205Z,9.27
2023-04-12T04:03:27.268Z,12.25
2023-04-12T04:05:54.149Z,11.48
2023-04-12T04:08:21.416Z,11.55
2023-04-12T04:10:48.173Z,16.13
2023-04-12T04:13:17.867Z,9.02
2023-04-12T04:15:50.039Z,10.90
2023-04-12T04:18:17.144Z,11.50
2023-04-12T04:20:46.372Z,22.48
2023-04-12T04:23:13.403Z,13.43
2023-04-12T04:28:23.830Z,14.60
2023-04-12T04:30:51.759Z,12.57
2023-04-12T04:33:20.408Z,13.48
2023-04-12T04:35:52.039Z,11.70
2023-04-12T04:38:26.056Z,13.10
2023-04-12T04:40:58.826Z,12.77
2023-04-12T04:43:27.031Z,9.60
2023-04-12T04:45:57.647Z,12.05
2023-04-12T04:48:25.333Z,13.13
2023-04-12T04:50:55.716Z,16.45
2023-04-12T04:53:28.911Z,15.35
2023-04-12T04:56:00.017Z,21.17
2023-04-12T04:58:30.082Z,13.27
2023-04-12T05:00:58.015Z,12.57
2023-04-12T05:03:31.299Z,15.73
2023-04-12T05:05:58.144Z,12.77
2023-04-12T05:08:28.228Z,9.57
2023-04-12T05:11:00.228Z,8.75
2023-04-12T05:13:32.165Z,7.45
2023-04-12T05:15:58.907Z,12.07
2023-04-12T05:18:25.748Z,6.15
2023-04-12T05:20:52.480Z,5.32
2023-04-12T05:23:22.291Z,8.52
2023-04-12T05:25:51.793Z,7.53
2023-04-12T05:28:20.618Z,7.97
2023-04-12T05:30:47.873Z,18.13
2023-04-12T05:33:16.176Z,9.18
2023-04-12T05:35:42.931Z,8.07
2023-04-12T05:38:10.040Z,4.25
2023-04-12T05:40:36.808Z,6.07
2023-04-12T05:43:03.797Z,7.90
2023-04-12T05:45:30.579Z,5.80
2023-04-12T05:47:57.309Z,17.67
2023-04-12T05:50:24.297Z,7.38
2023-04-12T05:52:53.813Z,6.68
2023-04-12T05:55:21.658Z,5.88
2023-04-12T05:57:48.465Z,6.68
2023-04-12T06:00:20.031Z,6.60
2023-04-12T06:02:50.853Z,6.30
2023-04-12T06:05:18.139Z,4.15
2023-04-12T06:07:49.427Z,5.40
2023-04-12T06:10:17.526Z,5.65
2023-04-12T06:12:45.689Z,4.78
2023-04-12T06:15:12.362Z,4.28
2023-04-12T06:17:39.343Z,4.35
2023-04-12T06:20:10.005Z,8.80
2023-04-12T06:22:37.942Z,4.60
2023-04-12T06:25:05.353Z,8.68
2023-04-12T06:27:32.536Z,12.93
2023-04-12T06:29:59.285Z,11.27
2023-04-12T06:32:26.660Z,6.93
2023-04-12T06:34:53.636Z,5.13
2023-04-12T06:37:22.240Z,7.43
2023-04-12T06:39:49.308Z,7.60
2023-04-12T06:42:17.802Z,6.87
2023-04-12T06:44:44.825Z,4.53
2023-04-12T06:47:11.837Z,4.80
2023-04-12T06:49:39.935Z,11.10
2023-04-12T06:52:06.626Z,5.80
2023-04-12T06:54:36.495Z,7.00
2023-04-12T06:57:03.387Z,5.30
2023-04-12T06:59:30.125Z,5.83
2023-04-12T07:01:56.890Z,5.33
2023-04-12T07:04:24.076Z,3.43
2023-04-12T07:06:51.029Z,7.93
2023-04-12T07:09:20.185Z,6.83
2023-04-12T07:11:47.785Z,5.77
2023-04-12T07:14:14.496Z,5.03
2023-04-12T07:16:42.976Z,6.80
2023-04-12T07:19:09.700Z,9.20
2023-04-12T07:21:36.498Z,6.67
2023-04-12T07:24:03.589Z,9.43
2023-04-12T07:26:31.573Z,7.17
2023-04-12T07:28:58.452Z,5.70
2023-04-12T07:31:26.071Z,12.20
2023-04-12T07:33:52.910Z,7.60
2023-04-12T07:36:21.662Z,7.43
2023-04-12T07:38:49.644Z,13.93
2023-04-12T07:41:18.890Z,7.20
2023-04-12T07:43:45.789Z,4.80
2023-04-12T07:46:12.631Z,6.73
2023-04-12T07:48:39.353Z,6.23
2023-04-12T07:51:06.349Z,5.33
2023-04-12T07:53:33.072Z,4.93
2023-04-12T07:55:59.860Z,8.07
2023-04-12T07:58:26.590Z,8.73
2023-04-12T08:00:54.138Z,6.77
2023-04-12T08:03:21.093Z,3.10
2023-04-12T08:05:55.575Z,4.37
2023-04-12T08:08:23.015Z,2.80
2023-04-12T08:10:51.114Z,5.37
2023-04-12T08:13:19.175Z,3.07
2023-04-12T08:15:47.960Z,4.93
2023-04-12T08:18:15.328Z,2.47
2023-04-12T08:20:44.644Z,5.30
2023-04-12T08:23:12.484Z,4.80
2023-04-12T08:25:39.702Z,5.20
2023-04-12T08:28:09.316Z,4.40
2023-04-12T08:30:36.774Z,6.43
2023-04-12T08:33:04.153Z,5.80
2023-04-12T08:35:31.485Z,5.63
2023-04-12T08:37:58.665Z,5.37
2023-04-12T08:40:26.014Z,3.53
2023-04-12T08:42:53.216Z,2.43
2023-04-12T08:45:24.150Z,3.67
2023-04-12T08:47:51.026Z,2.23
2023-04-12T08:50:19.062Z,4.47
2023-04-12T08:52:48.771Z,4.47
2023-04-12T08:55:15.627Z,4.00
2023-04-12T08:57:42.946Z,4.60
2023-04-12T09:00:10.881Z,3.50
2023-04-12T09:02:38.951Z,8.23
2023-04-12T09:05:06.893Z,2.63
2023-04-12T09:07:34.441Z,3.43
2023-04-12T09:10:01.471Z,4.50
2023-04-12T09:12:28.442Z,4.63
2023-04-12T09:15:08.830Z,3.33
2023-04-12T09:17:39.466Z,5.70
2023-04-12T09:20:12.156Z,4.07
2023-04-12T09:22:45.551Z,16.43
2023-04-12T09:25:13.199Z,4.83
2023-04-12T09:27:50.926Z,3.10
2023-04-12T09:30:19.449Z,2.50
2023-04-12T09:32:49.779Z,4.87
2023-04-12T09:35:16.855Z,6.83
2023-04-12T09:37:44.039Z,4.03
2023-04-12T09:40:11.871Z,5.70
2023-04-12T09:42:54.726Z,7.83
2023-04-12T09:45:26.418Z,2.80
2023-04-12T09:47:54.934Z,3.10
2023-04-12T09:50:27.318Z,4.30
2023-04-12T09:52:56.150Z,2.57
2023-04-12T09:55:25.548Z,1.90
2023-04-12T09:57:54.491Z,2.60
2023-04-12T10:00:27.042Z,4.27
2023-04-12T10:02:55.973Z,4.17
2023-04-12T10:05:28.307Z,4.40
2023-04-12T10:07:56.148Z,3.23
2023-04-12T10:10:23.515Z,5.43
2023-04-12T10:12:51.353Z,3.53
2023-04-12T10:15:21.421Z,2.77
2023-04-12T10:17:55.639Z,5.43
2023-04-12T10:20:27.049Z,9.57
2023-04-12T10:22:56.881Z,5.70
2023-04-12T10:25:26.031Z,2.67
2023-04-12T10:27:53.601Z,3.03
2023-04-12T10:30:28.284Z,8.87
2023-04-12T10:33:10.168Z,3.53
2023-04-12T10:35:53.267Z,4.57
2023-04-12T10:38:20.674Z,2.30
2023-04-12T10:41:13.377Z,1.53
2023-04-12T10:43:47.603Z,1.70
2023-04-12T10:46:41.659Z,2.27
2023-04-12T10:49:09.857Z,3.10
2023-04-12T10:51:36.992Z,2.07
2023-04-12T10:54:15.549Z,2.07
2023-04-12T10:56:43.807Z,4.57
2023-04-12T10:59:12.182Z,1.93
2023-04-12T11:01:41.644Z,4.30
2023-04-12T11:04:13.843Z,2.60
2023-04-12T11:06:53.383Z,3.73
2023-04-12T11:09:34.071Z,3.93
2023-04-12T11:12:09.550Z,4.43
2023-04-12T11:14:38.604Z,3.57
2023-04-12T11:17:08.869Z,6.60
2023-04-12T11:19:39.892Z,2.57
2023-04-12T11:22:08.690Z,3.10
2023-04-12T11:24:39.919Z,2.40
2023-04-12T11:27:06.982Z,2.30
2023-04-12T11:29:34.393Z,2.63
2023-04-12T11:32:05.358Z,3.13
2023-04-12T11:34:36.391Z,4.63
2023-04-12T11:37:06.870Z,2.47
2023-04-12T11:39:34.765Z,2.20
2023-04-12T11:42:03.354Z,5.73
2023-04-12T11:44:44.159Z,2.43
2023-04-12T11:47:24.154Z,1.87
2023-04-12T11:49:59.428Z,2.43
2023-04-12T11:52:33.885Z,3.93
2023-04-12T11:55:04.756Z,3.33
2023-04-12T11:57:31.934Z,5.68
2023-04-12T12:00:01.371Z,1.63
2023-04-12T12:02:34.620Z,3.65
2023-04-12T12:05:06.880Z,1.83
2023-04-12T12:07:34.883Z,1.85
2023-04-12T12:10:01.963Z,2.10
2023-04-12T12:12:30.159Z,4.57
2023-04-12T12:15:01.334Z,3.50
2023-04-12T12:17:28.903Z,2.95
2023-04-12T12:19:59.396Z,2.28
2023-04-12T12:22:26.650Z,5.13
2023-04-12T12:25:00.972Z,2.30
2023-04-12T12:27:31.253Z,4.38
2023-04-12T12:30:01.588Z,4.15
2023-04-12T12:32:37.500Z,3.65
2023-04-12T12:35:09.380Z,6.03
2023-04-12T12:37:36.954Z,4.70
2023-04-12T12:40:13.822Z,5.30
2023-04-12T12:42:48.810Z,7.25
2023-04-12T12:45:17.209Z,4.50
2023-04-12T12:48:02.587Z,7.75
2023-04-12T12:50:31.882Z,4.57
2023-04-12T12:53:00.875Z,4.65
2023-04-12T12:55:30.268Z,4.57
2023-04-12T13:00:30.223Z,3.17
2023-04-12T13:02:58.927Z,3.80
2023-04-12T13:05:26.016Z,8.77
2023-04-12T13:07:53.131Z,5.97
2023-04-12T13:10:20.400Z,1.83
2023-04-12T13:12:47.564Z,2.38
2023-04-12T13:17:45.389Z,4.53
2023-04-12T13:20:12.553Z,7.35
2023-04-12T13:22:39.705Z,3.80
2023-04-12T13:25:07.169Z,3.53
2023-04-12T13:27:35.265Z,2.72
2023-04-12T13:30:02.074Z,5.20
2023-04-12T13:32:29.293Z,2.60
2023-04-12T13:34:56.115Z,5.15
2023-04-12T13:37:25.274Z,4.05
2023-04-12T13:39:52.834Z,2.25
2023-04-12T13:42:20.059Z,2.28
2023-04-12T13:44:48.694Z,8.98
2023-04-12T13:47:16.345Z,4.10
2023-04-12T13:49:43.210Z,11.23
2023-04-12T13:52:10.147Z,6.57
2023-04-12T13:54:37.931Z,7.25
2023-04-12T13:57:05.303Z,4.85
2023-04-12T13:59:34.615Z,4.53
2023-04-12T14:02:01.973Z,2.72
2023-04-12T14:04:30.046Z,5.72
2023-04-12T14:06:57.529Z,6.43
2023-04-12T14:09:32.100Z,7.35
2023-04-12T14:12:02.041Z,9.00
2023-04-12T14:14:28.755Z,3.08
2023-04-12T14:17:01.292Z,2.08
2023-04-12T14:19:28.103Z,18.98
2023-04-12T14:21:55.366Z,1.70
2023-04-12T14:24:23.369Z,5.28
2023-04-12T14:26:53.778Z,6.15
2023-04-12T14:29:22.103Z,5.80
2023-04-12T14:31:49.067Z,3.30
2023-04-12T14:34:18.098Z,3.15
2023-04-12T14:36:45.211Z,1.83
2023-04-12T14:39:14.096Z,5.10
2023-04-12T14:41:42.228Z,5.68
2023-04-12T14:44:10.043Z,4.88
2023-04-12T14:46:39.177Z,2.30
2023-04-12T14:49:07.021Z,3.88
2023-04-12T14:51:35.969Z,2.28
2023-04-12T14:54:02.938Z,7.97
2023-04-12T14:56:35.646Z,7.38
2023-04-12T14:59:05.723Z,3.35
2023-04-12T15:01:33.919Z,4.00
2023-04-12T15:04:02.869Z,5.88
2023-04-12T15:06:33.655Z,3.65
2023-04-12T15:09:00.960Z,6.97
2023-04-12T15:11:29.305Z,7.93
2023-04-12T15:13:57.463Z,7.15
2023-04-12T15:16:24.974Z,6.60
2023-04-12T15:18:53.090Z,8.27
2023-04-12T15:21:20.377Z,6.43
2023-04-12T15:23:47.843Z,5.75
2023-04-12T15:26:14.733Z,2.83
2023-04-12T15:28:42.690Z,3.40
2023-04-12T15:31:11.997Z,3.03
2023-04-12T15:33:39.402Z,2.28
2023-04-12T15:36:07.219Z,3.03
2023-04-12T15:38:42.206Z,7.22
2023-04-12T15:41:09.551Z,6.10
2023-04-12T15:43:39.824Z,3.67
2023-04-12T15:46:06.862Z,3.45
2023-04-12T15:48:35.752Z,4.32
2023-04-12T15:51:04.926Z,5.47
2023-04-12T15:53:33.320Z,3.83
2023-04-12T15:56:00.720Z,7.15
2023-04-12T15:58:29.004Z,4.82
2023-04-12T16:00:57.545Z,22.98
2023-04-12T16:03:26.067Z,5.00
2023-04-12T16:05:55.084Z,6.85
2023-04-12T16:08:24.728Z,14.25
2023-04-12T16:10:51.610Z,5.85
2023-04-12T16:13:18.857Z,5.43
2023-04-12T16:15:46.115Z,5.00
2023-04-12T16:18:13.362Z,2.85
2023-04-12T16:20:43.126Z,2.20
2023-04-12T16:23:09.872Z,4.10
2023-04-12T16:25:38.166Z,8.20
2023-04-12T16:28:06.132Z,4.40
2023-04-12T16:30:33.079Z,14.70
2023-04-12T16:33:00.621Z,6.47
2023-04-12T16:35:27.516Z,6.38
2023-04-12T16:37:55.591Z,10.55
2023-04-12T16:40:22.660Z,4.95
2023-04-12T16:42:49.863Z,10.32
2023-04-12T16:45:16.676Z,6.28
2023-04-12T16:47:46.959Z,12.77
2023-04-12T16:50:14.182Z,7.18
2023-04-12T16:52:42.906Z,11.30
2023-04-12T16:55:13.575Z,8.55
2023-04-12T16:57:42.192Z,8.55
2023-04-12T17:00:19.729Z,9.35
2023-04-12T17:02:51.868Z,14.88
2023-04-12T17:05:21.043Z,17.88
2023-04-12T17:07:50.120Z,10.88
2023-04-12T17:10:24.840Z,6.47
2023-04-12T17:12:57.503Z,5.93
2023-04-12T17:15:25.722Z,5.85
2023-04-12T17:17:53.886Z,11.68
2023-04-12T17:20:26.033Z,6.88
2023-04-12T17:22:53.281Z,10.07
2023-04-12T17:25:21.903Z,5.30
2023-04-12T17:27:53.736Z,18.60
2023-04-12T17:30:24.655Z,12.63
2023-04-12T17:32:51.870Z,11.15
2023-04-12T17:35:19.209Z,10.63
2023-04-12T17:37:46.926Z,13.57
2023-04-12T17:40:14.342Z,12.38
2023-04-12T17:42:43.698Z,7.30
2023-04-12T17:45:12.873Z,8.88
2023-04-12T17:47:41.689Z,4.70
2023-04-12T17:50:10.865Z,13.20
2023-04-12T17:52:38.783Z,5.00
2023-04-12T17:55:07.563Z,4.97
2023-04-12T17:57:35.032Z,16.92
2023-04-12T18:00:02.014Z,8.00
2023-04-12T18:02:29.583Z,9.32
2023-04-12T18:04:56.903Z,5.30
2023-04-12T18:07:26.416Z,4.28
2023-04-12T18:09:53.147Z,5.28
2023-04-12T18:12:22.147Z,10.90
2023-04-12T18:14:49.718Z,14.88
2023-04-12T18:17:16.571Z,21.55
2023-04-12T18:19:43.292Z,9.35
2023-04-12T18:22:10.522Z,11.57
2023-04-12T18:24:38.504Z,15.50
2023-04-12T18:27:06.685Z,8.32
2023-04-12T18:29:33.457Z,9.18
2023-04-12T18:32:00.350Z,12.75
2023-04-12T18:34:27.588Z,28.83
2023-04-12T18:36:54.404Z,8.38
2023-04-12T18:39:22.454Z,14.80
2023-04-12T18:41:49.548Z,12.13
2023-04-12T18:44:22.527Z,7.70
2023-04-12T18:46:49.444Z,9.75
2023-04-12T18:49:18.626Z,7.25
2023-04-12T18:51:50.224Z,9.32
2023-04-12T18:54:18.147Z,10.00
2023-04-12T18:56:48.237Z,9.95
2023-04-12T18:59:18.180Z,12.00
2023-04-12T19:01:45.680Z,13.73
2023-04-12T19:04:12.781Z,10.57
2023-04-12T19:06:44.246Z,11.55
2023-04-12T19:09:11.336Z,8.63
2023-04-12T19:11:38.427Z,14.65
2023-04-12T19:14:10.637Z,12.85
2023-04-12T19:16:39.067Z,21.30
2023-04-12T19:19:06.520Z,6.75
2023-04-12T19:21:34.562Z,9.43
2023-04-12T19:24:01.458Z,8.45
2023-04-12T19:26:30.372Z,6.75
2023-04-12T19:29:00.107Z,10.82
2023-04-12T19:31:26.844Z,13.55
2023-04-12T19:33:57.696Z,7.55
2023-04-12T19:36:24.879Z,7.70
2023-04-12T19:38:53.196Z,6.82
2023-04-12T19:41:26.046Z,12.00
2023-04-12T19:43:53.321Z,9.77
2023-04-12T19:46:25.597Z,9.57
2023-04-12T19:48:54.177Z,9.05
2023-04-12T19:51:28.579Z,16.90
2023-04-12T19:54:00.447Z,9.75
2023-04-12T19:56:31.094Z,12.57
2023-04-12T19:58:58.474Z,10.55
2023-04-12T20:01:26.897Z,19.13
2023-04-12T20:03:53.775Z,15.10
2023-04-12T20:06:21.020Z,16.00
2023-04-12T20:08:47.810Z,15.65
2023-04-12T20:11:15.114Z,17.38
2023-04-12T20:13:42.972Z,18.38
2023-04-12T20:16:10.020Z,15.43
2023-04-12T20:18:37.285Z,12.75
2023-04-12T20:21:06.571Z,12.07
2023-04-12T20:23:33.223Z,18.05
2023-04-12T20:26:00.608Z,11.35
2023-04-12T20:28:28.560Z,18.10
2023-04-12T20:30:56.041Z,22.25
2023-04-12T20:33:22.827Z,34.88
2023-04-12T20:35:51.252Z,15.10
2023-04-12T20:38:19.329Z,22.10
2023-04-12T20:40:46.307Z,15.80
2023-04-12T20:43:13.044Z,19.17
2023-04-12T20:45:40.613Z,14.40
2023-04-12T20:48:08.037Z,12.90
2023-04-12T20:50:35.757Z,25.17
2023-04-12T20:53:02.898Z,17.45
2023-04-12T20:55:34.067Z,15.65
2023-04-12T20:58:04.386Z,20.90
2023-04-12T21:00:32.723Z,19.40
2023-04-12T21:03:03.216Z,26.88
2023-04-12T21:05:34.687Z,20.70
2023-04-12T21:08:02.109Z,18.77
2023-04-12T21:10:29.013Z,14.75
2023-04-12T21:12:56.120Z,16.00
2023-04-12T21:15:23.492Z,11.60
2023-04-12T21:17:52.746Z,10.18
2023-04-12T21:20:20.037Z,19.52
2023-04-12T21:22:47.967Z,17.38
2023-04-12T21:25:16.255Z,14.93
2023-04-12T21:27:43.759Z,13.15
2023-04-12T21:30:11.319Z,15.85
2023-04-12T21:32:38.472Z,21.05
2023-04-12T21:35:07.569Z,13.45
2023-04-12T21:37:35.911Z,19.33
2023-04-12T21:40:09.934Z,19.50
2023-04-12T21:42:38.103Z,16.95
2023-04-12T21:45:13.068Z,17.95
2023-04-12T21:47:41.295Z,16.17
2023-04-12T21:50:10.008Z,12.63
2023-04-12T21:52:37.496Z,24.13
2023-04-12T21:55:06.740Z,17.02
2023-04-12T21:57:35.393Z,15.43
2023-04-12T22:00:05.697Z,21.90
2023-04-12T22:02:34.248Z,17.20
2023-04-12T22:05:01.097Z,14.90
2023-04-12T22:07:28.548Z,18.27
2023-04-12T22:09:55.896Z,18.55
2023-04-12T22:12:25.850Z,18.65
2023-04-12T22:14:52.980Z,24.92
2023-04-12T22:17:21.391Z,19.48
2023-04-12T22:19:48.919Z,18.02
2023-04-12T22:22:16.090Z,17.63
2023-04-12T22:24:44.131Z,22.98
2023-04-12T22:27:10.872Z,24.67
2023-04-12T22:29:40.903Z,15.68
2023-04-12T22:32:08.966Z,14.55
2023-04-12T22:34:39.231Z,16.02
2023-04-12T22:37:08.615Z,19.00
2023-04-12T22:39:38.084Z,19.77
2023-04-12T22:42:06.325Z,23.17
2023-04-12T22:44:38.425Z,19.77
2023-04-12T22:47:08.538Z,19.20
2023-04-12T22:49:45.146Z,15.65
2023-04-12T22:52:12.550Z,14.90
2023-04-12T22:54:40.321Z,16.52
2023-04-12T22:57:07.565Z,19.48
2023-04-12T22:59:34.882Z,18.50
2023-04-12T23:02:02.325Z,16.15
2023-04-12T23:04:29.135Z,18.02
2023-04-12T23:06:55.866Z,17.33
2023-04-12T23:09:23.058Z,16.25
2023-04-12T23:11:51.967Z,15.13
2023-04-12T23:14:18.700Z,18.50
2023-04-12T23:16:46.263Z,23.55
2023-04-12T23:19:14.746Z,19.48
2023-04-12T23:21:42.652Z,19.15
2023-04-12T23:24:12.117Z,21.65
2023-04-12T23:26:39.452Z,20.83
2023-04-12T23:29:06.223Z,25.55
2023-04-12T23:31:33.616Z,18.60
2023-04-12T23:34:06.488Z,16.27
2023-04-12T23:36:33.830Z,19.50
2023-04-12T23:39:01.847Z,18.52
2023-04-12T23:41:31.864Z,22.05
2023-04-12T23:43:59.019Z,17.33
2023-04-12T23:46:27.293Z,17.90
2023-04-12T23:48:54.467Z,19.45
2023-04-12T23:51:22.145Z,18.98
2023-04-12T23:53:48.865Z,17.67
2023-04-12T23:56:15.852Z,16.35
2023-04-12T23:58:43.130Z,17.50
